Time;durP1;ratioP1;P1;durP2;ratioP2;P2;SDS_P1;SDS_P2;PMS_P1;PMS_P2;Temp;Humidity;BMP_temperature;BMP_pressure;BME280_temperature;BME280_humidity;BME280_pressure;Samples;Min_cycle;Max_cycle;Signal;HPM_P1;HPM_P2
2023/02/18 00:01:42;;;;;;;3.80;1.50;;;8.60;99.90;;;-141.84;73.19;19185.88;5048937;28;20241;-62
2023/02/18 00:04:12;;;;;;;2.23;1.47;;;8.60;99.90;;;-141.84;73.83;19151.34;5048568;28;20221;-62
2023/02/18 00:06:40;;;;;;;2.60;1.40;;;8.50;99.90;;;-141.84;73.83;19155.41;5048502;28;20202;-59
2023/02/18 00:09:08;;;;;;;3.17;1.77;;;8.40;99.90;;;-141.84;74.09;19151.34;5049160;28;20216;-62
2023/02/18 00:11:38;;;;;;;5.37;1.63;;;8.30;99.90;;;-141.84;73.23;19163.53;5050037;28;20251;-62
2023/02/18 00:14:14;;;;;;;4.87;1.70;;;8.30;99.90;;;-141.84;72.14;19179.78;5052013;28;20221;-61
2023/02/18 00:16:44;;;;;;;3.00;1.40;;;8.30;99.90;;;-141.84;72.00;19179.78;5049460;28;20588;-62
2023/02/18 00:19:17;;;;;;;5.03;2.13;;;8.20;99.90;;;-141.84;72.07;19145.25;5052071;28;20232;-62
2023/02/18 00:21:47;;;;;;;3.20;1.50;;;8.20;99.90;;;-141.84;72.38;19167.59;5051908;28;20212;-61
2023/02/18 00:24:16;;;;;;;3.43;1.70;;;8.20;99.90;;;-141.84;73.17;19155.41;5052541;28;20205;-60
2023/02/18 00:26:45;;;;;;;3.60;1.77;;;8.20;99.90;;;-141.84;73.62;19151.34;5051412;28;20224;-60
2023/02/18 00:29:13;;;;;;;5.97;1.93;;;8.20;99.90;;;-141.84;73.99;19159.47;5051906;28;20236;-63
2023/02/18 00:31:42;;;;;;;3.30;1.87;;;8.10;99.90;;;-141.84;74.92;19147.28;5051630;28;20217;-60
2023/02/18 00:34:13;;;;;;;2.57;1.60;;;8.10;99.90;;;-141.84;75.93;19147.28;5051703;28;20298;-62
2023/02/18 00:36:42;;;;;;;5.60;2.40;;;8.00;99.90;;;-141.84;76.14;19147.28;5051135;28;20575;-62
2023/02/18 00:39:12;;;;;;;6.67;2.30;;;8.10;99.90;;;-141.84;76.04;19151.34;5052193;28;20201;-61
2023/02/18 00:41:41;;;;;;;5.37;1.90;;;8.20;99.90;;;-141.84;74.40;19147.28;5051735;28;20232;-61
2023/02/18 00:44:10;;;;;;;2.63;1.30;;;8.20;99.90;;;-141.84;73.86;19192.00;5051629;28;20221;-63
2023/02/18 00:46:38;;;;;;;5.07;1.80;;;8.30;99.90;;;-141.84;72.96;19167.59;5051204;28;20220;-62
2023/02/18 00:49:08;;;;;;;3.40;1.60;;;8.30;99.90;;;-141.84;73.12;19167.59;5051392;28;20308;-61
2023/02/18 00:51:37;;;;;;;4.07;1.30;;;8.30;99.90;;;-141.84;72.72;19200.13;5032270;28;20209;-62
2023/02/18 00:54:06;;;;;;;3.93;1.77;;;8.30;99.90;;;-141.84;71.90;19151.34;5031960;28;20225;-60
2023/02/18 00:56:34;;;;;;;3.70;1.50;;;8.30;99.90;;;-141.84;71.76;19192.00;5031157;28;20241;-61
2023/02/18 00:59:03;;;;;;;3.40;1.20;;;8.30;99.90;;;-141.84;70.48;19189.97;5031362;28;20225;-61
2023/02/18 01:01:31;;;;;;;2.90;1.37;;;8.30;99.90;;;-141.84;69.83;19200.13;5031524;28;20226;-62
2023/02/18 01:03:59;;;;;;;3.30;1.57;;;8.40;99.90;;;-141.84;68.60;19242.78;5031515;28;20234;-62
2023/02/18 01:06:27;;;;;;;6.07;1.90;;;8.50;99.90;;;-141.84;69.40;19210.28;5031482;28;20201;-61
2023/02/18 01:08:57;;;;;;;3.13;1.20;;;8.40;99.90;;;-141.84;68.94;19230.59;5031462;28;20226;-61
2023/02/18 01:11:25;;;;;;;2.30;1.37;;;8.50;99.90;;;-141.84;68.93;19244.81;5030950;28;20615;-62
2023/02/18 01:13:54;;;;;;;4.40;1.50;;;8.50;99.90;;;-141.84;68.85;19242.78;5031049;28;20230;-61
2023/02/18 01:16:22;;;;;;;3.70;1.30;;;8.40;99.90;;;-141.84;68.91;19234.66;5030744;28;20217;-62
2023/02/18 01:18:50;;;;;;;3.70;1.20;;;8.40;99.90;;;-141.84;68.87;19228.56;5031091;28;20202;-62
2023/02/18 01:21:18;;;;;;;3.90;1.93;;;8.40;99.90;;;-141.84;68.09;19236.69;5031295;28;20210;-61
2023/02/18 01:23:46;;;;;;;6.13;1.93;;;8.50;99.90;;;-141.84;68.51;19259.03;5030778;28;20221;-62
2023/02/18 01:26:16;;;;;;;6.03;1.43;;;8.50;99.90;;;-141.84;68.25;19226.53;5030996;28;20248;-61
2023/02/18 01:28:45;;;;;;;2.20;1.20;;;8.50;99.90;;;-141.84;69.13;19232.63;5031044;28;20229;-61
2023/02/18 01:31:14;;;;;;;3.17;1.40;;;8.50;99.90;;;-141.84;68.68;19228.56;5030647;28;20226;-62
2023/02/18 01:33:43;;;;;;;3.57;1.37;;;8.50;99.90;;;-141.84;68.70;19263.09;5030522;28;20221;-61
2023/02/18 01:36:12;;;;;;;5.10;1.23;;;8.40;99.90;;;-141.84;68.83;19204.19;5030925;28;20205;-61
2023/02/18 01:38:41;;;;;;;4.40;1.67;;;8.40;99.90;;;-141.84;67.40;19297.66;5030197;28;20230;-62
2023/02/18 01:41:10;;;;;;;7.50;1.60;;;8.50;99.90;;;-141.84;67.23;19261.06;5030575;28;20226;-61
2023/02/18 01:43:39;;;;;;;3.10;1.30;;;8.50;99.90;;;-141.84;67.36;19269.22;5030484;28;20228;-61
2023/02/18 01:46:18;;;;;;;4.73;1.50;;;8.50;99.90;;;-141.84;66.27;19277.34;5030582;28;20233;-62
2023/02/18 01:48:53;;;;;;;7.50;1.50;;;8.60;99.90;;;-141.84;66.21;19299.69;5030650;28;20183;-61
2023/02/18 01:51:27;;;;;;;4.53;1.20;;;8.50;99.90;;;-141.84;66.45;19281.41;5030774;28;20198;-61
2023/02/18 01:54:01;;;;;;;4.93;1.63;;;8.50;99.90;;;-141.84;66.51;19250.91;5030291;28;20229;-61
2023/02/18 01:56:35;;;;;;;4.07;1.43;;;8.50;99.90;;;-141.84;67.54;19228.56;5030067;28;20244;-61
2023/02/18 01:59:16;;;;;;;4.07;1.37;;;8.40;99.90;;;-141.84;67.01;19271.25;5030112;28;20265;-63
2023/02/18 02:01:46;;;;;;;6.23;1.43;;;8.50;99.90;;;-141.84;67.48;19265.13;5029879;28;20240;-62
2023/02/18 02:04:14;;;;;;;4.40;1.33;;;8.40;99.90;;;-141.84;67.04;19271.25;5029993;28;20645;-60
2023/02/18 02:06:43;;;;;;;4.10;1.47;;;8.40;99.90;;;-141.84;66.52;19301.72;5029793;28;20202;-62
2023/02/18 02:09:15;;;;;;;3.10;1.50;;;8.50;99.90;;;-141.84;65.77;19293.59;5030652;28;20202;-62
2023/02/18 02:12:21;;;;;;;3.87;1.40;;;8.50;99.90;;;-141.84;65.70;19271.25;5029690;28;20230;-61
2023/02/18 02:15:08;;;;;;;5.03;1.50;;;8.50;99.90;;;-141.84;65.10;19315.94;5029739;28;20291;-60
2023/02/18 02:17:52;;;;;;;4.63;1.53;;;8.70;99.90;;;-141.84;64.92;19307.81;5029238;28;20245;-61
2023/02/18 02:21:06;;;;;;;3.73;1.40;;;8.70;99.90;;;-141.84;64.74;19336.25;5029714;28;20264;-62
2023/02/18 02:24:29;;;;;;;7.57;1.60;;;8.70;99.90;;;-141.84;64.53;19348.47;5013502;28;20226;-61
2023/02/18 02:27:26;;;;;;;5.10;1.50;;;8.80;99.90;;;-141.84;65.64;19334.22;5029552;28;20583;-62
2023/02/18 02:30:40;;;;;;;4.80;1.90;;;8.80;99.90;;;-141.84;65.86;19287.50;5029339;28;20248;-62
2023/02/18 02:33:50;;;;;;;3.07;1.47;;;8.70;99.90;;;-141.84;66.65;19301.72;5014277;28;20226;-61
2023/02/18 02:36:28;;;;;;;4.07;1.77;;;8.70;99.90;;;-141.84;66.66;19305.78;5029622;28;20209;-61
2023/02/18 02:39:07;;;;;;;4.40;1.70;;;8.70;99.90;;;-141.84;65.63;19334.22;5029065;28;20221;-61
2023/02/18 02:41:50;;;;;;;5.67;1.97;;;8.70;99.90;;;-141.84;65.77;19336.25;5029204;28;20229;-61
2023/02/18 02:44:24;;;;;;;5.20;1.60;;;8.80;99.90;;;-141.84;65.18;19362.69;5029400;28;20236;-60
2023/02/18 02:47:02;;;;;;;5.03;1.70;;;8.90;99.90;;;-141.84;66.03;19336.25;5029088;28;20709;-62
2023/02/18 02:49:39;;;;;;;4.07;1.37;;;8.80;99.90;;;-141.84;66.58;19295.63;5029184;28;20229;-62
2023/02/18 02:52:14;;;;;;;5.87;1.87;;;8.80;99.90;;;-141.84;66.87;19326.09;5028868;28;20291;-61
2023/02/18 02:54:43;;;;;;;5.37;2.50;;;8.80;99.90;;;-141.84;66.70;19338.28;5029453;28;20525;-61
2023/02/18 02:57:53;;;;;;;3.47;1.53;;;8.80;99.90;;;-141.84;65.50;19340.31;5029505;28;20233;-61
2023/02/18 03:00:37;;;;;;;7.70;1.87;;;8.80;99.90;;;-141.84;65.91;19338.28;5029296;28;20214;-61
2023/02/18 03:03:39;;;;;;;5.17;1.93;;;8.80;99.90;;;-141.84;66.21;19332.19;5028945;28;20210;-61
2023/02/18 03:06:32;;;;;;;5.70;2.10;;;8.80;99.90;;;-141.84;65.83;19358.63;5029241;28;20209;-62
2023/02/18 03:09:15;;;;;;;4.77;1.80;;;8.80;99.90;;;-141.84;65.82;19336.25;5028669;28;20236;-61
2023/02/18 03:11:57;;;;;;;6.70;1.90;;;8.80;99.90;;;-141.84;65.65;19326.09;5028999;28;20225;-62
2023/02/18 03:14:32;;;;;;;3.43;1.60;;;8.90;99.90;;;-141.84;66.59;19346.44;5028756;28;20233;-62
2023/02/18 03:17:11;;;;;;;5.23;1.60;;;8.80;99.90;;;-141.84;65.49;19374.88;5028370;28;20712;-61
2023/02/18 03:19:47;;;;;;;4.77;1.83;;;8.90;99.90;;;-141.84;64.81;19348.47;5028827;28;20229;-53
2023/02/18 03:22:22;;;;;;;3.90;1.73;;;8.90;99.90;;;-141.84;65.56;19352.53;5028782;28;20226;-53
2023/02/18 03:24:57;;;;;;;3.83;2.00;;;8.90;99.90;;;-141.84;65.20;19350.50;5028624;28;20542;-53
2023/02/18 03:27:32;;;;;;;2.97;1.70;;;8.90;99.90;;;-141.84;65.98;19352.53;5029637;28;20197;-55
2023/02/18 03:30:07;;;;;;;4.23;2.00;;;8.90;99.90;;;-141.84;65.78;19322.03;5028932;28;20228;-55
2023/02/18 03:32:36;;;;;;;6.83;2.93;;;8.90;99.90;;;-141.84;65.42;19324.06;5028598;28;20230;-53
2023/02/18 03:35:13;;;;;;;7.67;2.20;;;8.80;99.90;;;-141.84;64.92;19338.28;5028612;28;20241;-54
2023/02/18 03:37:50;;;;;;;7.40;2.63;;;8.90;99.90;;;-141.84;65.05;19370.81;5028325;28;20221;-56
2023/02/18 03:40:20;;;;;;;2.90;1.97;;;8.90;99.90;;;-141.84;65.34;19358.63;5028674;28;20232;-55
2023/02/18 03:42:48;;;;;;;3.87;2.30;;;8.90;99.90;;;-141.84;65.98;19358.63;5028516;28;20198;-54
2023/02/18 03:45:16;;;;;;;3.87;2.10;;;8.80;99.90;;;-141.84;65.81;19358.63;5030197;28;20529;-53
2023/02/18 03:47:45;;;;;;;5.83;2.20;;;8.80;99.90;;;-141.84;66.52;19291.56;5032599;28;20226;-54
2023/02/18 03:50:13;;;;;;;6.97;2.17;;;8.80;99.90;;;-141.84;66.68;19295.63;5032364;28;20237;-55
2023/02/18 03:52:41;;;;;;;5.47;1.80;;;8.70;99.90;;;-141.84;66.23;19334.22;5032558;28;20717;-54
2023/02/18 03:55:10;;;;;;;5.83;2.37;;;8.70;99.90;;;-141.84;66.75;19317.97;5032067;28;20226;-53
2023/02/18 03:57:39;;;;;;;8.67;2.33;;;8.70;99.90;;;-141.84;66.66;19352.53;5033002;28;20204;-53
2023/02/18 04:00:10;;;;;;;6.37;2.10;;;8.70;99.90;;;-141.84;67.10;19315.94;5032067;28;20233;-54
2023/02/18 04:02:38;;;;;;;6.40;1.87;;;8.70;99.90;;;-141.84;67.38;19344.41;5032111;28;20234;-54
2023/02/18 04:05:08;;;;;;;8.83;2.10;;;8.60;99.90;;;-141.84;67.01;19317.97;5032058;28;20230;-53
2023/02/18 04:07:36;;;;;;;9.77;2.50;;;8.60;99.90;;;-141.84;67.20;19328.13;5032288;28;20309;-56
2023/02/18 04:10:07;;;;;;;7.33;2.07;;;8.60;99.90;;;-141.84;68.01;19336.25;5032066;28;20236;-54
2023/02/18 04:12:35;;;;;;;6.87;1.90;;;8.50;99.90;;;-141.84;66.96;19352.53;5032843;28;20285;-54
2023/02/18 04:15:05;;;;;;;5.40;1.80;;;8.60;99.90;;;-141.84;68.26;19317.97;5031780;28;20229;-52
2023/02/18 04:17:34;;;;;;;8.03;1.60;;;8.50;99.90;;;-141.84;68.94;19328.13;5032133;28;20244;-52
2023/02/18 04:20:03;;;;;;;5.80;1.80;;;8.50;99.90;;;-141.84;69.62;19283.44;5031892;28;20237;-54
2023/02/18 04:22:31;;;;;;;6.30;1.83;;;8.40;99.90;;;-141.84;68.51;19297.66;5031996;28;20233;-55
2023/02/18 04:25:00;;;;;;;5.13;1.73;;;8.40;99.90;;;-141.84;69.62;19275.31;5032118;28;20226;-55
2023/02/18 04:27:28;;;;;;;5.57;1.90;;;8.40;99.90;;;-141.84;69.78;19273.28;5032206;28;20202;-56
2023/02/18 04:29:56;;;;;;;5.97;2.27;;;8.40;99.90;;;-141.84;69.94;19303.75;5031637;28;20222;-55
2023/02/18 04:32:26;;;;;;;7.07;2.20;;;8.30;99.90;;;-141.84;69.61;19293.59;5031575;28;20503;-53
2023/02/18 04:34:54;;;;;;;6.73;2.03;;;8.40;99.90;;;-141.84;70.01;19315.94;5031699;28;20279;-53
2023/02/18 04:37:22;;;;;;;7.90;2.20;;;8.40;99.90;;;-141.84;70.00;19283.44;5031828;28;20225;-54
2023/02/18 04:39:50;;;;;;;6.27;2.33;;;8.40;99.90;;;-141.84;70.73;19291.56;5031499;28;20222;-55
2023/02/18 04:42:19;;;;;;;8.27;2.53;;;8.30;99.90;;;-141.84;71.27;19287.50;5032146;28;20225;-53
2023/02/18 04:44:47;;;;;;;7.77;2.83;;;8.30;99.90;;;-141.84;71.81;19244.81;5031305;28;20222;-56
2023/02/18 04:47:15;;;;;;;7.37;3.40;;;8.30;99.90;;;-141.84;72.33;19257.00;5031423;28;20237;-53
2023/02/18 04:49:45;;;;;;;12.57;3.17;;;8.30;99.90;;;-141.84;72.51;19240.75;5031230;28;20674;-56
2023/02/18 04:52:13;;;;;;;8.37;3.33;;;8.30;99.90;;;-141.84;73.11;19261.06;5031341;28;20233;-54
2023/02/18 04:54:41;;;;;;;6.87;4.00;;;8.30;99.90;;;-141.84;72.72;19269.22;5031365;28;20194;-54
2023/02/18 04:57:09;;;;;;;9.90;4.10;;;8.40;99.90;;;-141.84;74.04;19242.78;5031066;28;20221;-55
2023/02/18 04:59:38;;;;;;;10.03;4.50;;;8.30;99.90;;;-141.84;74.46;19220.44;5030937;28;20222;-54
2023/02/18 05:02:06;;;;;;;11.60;4.63;;;8.30;99.90;;;-141.84;75.19;19265.13;5031229;28;20280;-53
2023/02/18 05:04:35;;;;;;;9.03;4.80;;;8.30;99.90;;;-141.84;75.45;19204.19;5031245;28;20233;-52
2023/02/18 05:07:04;;;;;;;11.10;5.30;;;8.30;99.90;;;-141.84;75.99;19234.66;5030915;28;20245;-54
2023/02/18 05:09:32;;;;;;;13.10;5.43;;;8.30;99.90;;;-141.84;76.71;19238.72;5030896;28;20681;-56
2023/02/18 05:12:00;;;;;;;8.70;5.10;;;8.30;99.90;;;-141.84;77.37;19181.81;5030818;28;20657;-55
2023/02/18 05:14:29;;;;;;;9.13;5.50;;;8.20;99.90;;;-141.84;77.28;19228.56;5030637;28;20233;-54
2023/02/18 05:16:57;;;;;;;13.37;5.33;;;8.20;99.90;;;-141.84;78.13;19194.03;5030678;28;20241;-55
2023/02/18 05:19:25;;;;;;;11.73;6.00;;;8.20;99.90;;;-141.84;78.38;19179.78;5030545;28;20226;-53
2023/02/18 05:21:53;;;;;;;11.87;5.50;;;8.20;99.90;;;-141.84;78.60;19185.88;5030803;28;20206;-55
2023/02/18 05:24:23;;;;;;;9.13;5.60;;;8.30;99.90;;;-141.84;78.81;19196.06;5031154;28;20206;-52
2023/02/18 05:26:51;;;;;;;10.43;5.77;;;8.30;99.90;;;-141.84;79.05;19208.25;5030795;28;20598;-54
2023/02/18 05:29:19;;;;;;;9.30;5.03;;;8.30;99.90;;;-141.84;79.27;19210.28;5030427;28;20222;-57
2023/02/18 05:31:47;;;;;;;6.10;4.77;;;8.30;99.90;;;-141.84;79.63;19171.66;5030209;28;20232;-55
2023/02/18 05:34:15;;;;;;;9.00;5.03;;;8.30;99.90;;;-141.84;79.81;19175.72;5030569;28;20245;-55
2023/02/18 05:36:44;;;;;;;7.27;5.37;;;8.30;99.90;;;-141.84;80.12;19185.88;5030165;28;20696;-54
2023/02/18 05:39:12;;;;;;;8.50;5.57;;;8.30;99.90;;;-141.84;80.82;19147.28;5031827;28;20221;-55
2023/02/18 05:41:41;;;;;;;10.30;5.17;;;8.30;99.90;;;-141.84;81.83;19159.47;5031341;28;20233;-56
2023/02/18 05:46:55;;;;;;;13.67;6.80;;;8.30;99.90;;;-141.84;82.75;19159.47;5031276;28;20232;-56
2023/02/18 05:49:23;;;;;;;10.10;6.60;;;8.30;99.90;;;-141.84;82.94;19165.56;5031537;28;20229;-56
2023/02/18 05:51:51;;;;;;;10.43;6.53;;;8.30;99.90;;;-141.84;82.73;19143.22;5031182;28;20198;-51
2023/02/18 05:54:19;;;;;;;10.50;6.77;;;8.40;99.90;;;-141.84;83.01;19120.88;5031819;28;20202;-53
2023/02/18 05:56:49;;;;;;;10.30;6.93;;;8.40;99.90;;;-141.84;83.50;19122.91;5031238;28;20225;-55
2023/02/18 05:59:18;;;;;;;9.60;7.07;;;8.40;99.90;;;-141.84;83.79;19102.56;5031126;28;20236;-53
2023/02/18 06:01:47;;;;;;;12.20;7.97;;;8.40;99.90;;;-141.84;84.44;19112.75;5031021;28;20222;-53
2023/02/18 06:04:15;;;;;;;12.23;7.60;;;8.40;99.90;;;-141.84;83.66;19141.19;5037762;28;20226;-55
2023/02/18 06:06:44;;;;;;;10.77;7.73;;;8.50;99.90;;;-141.84;84.07;19149.31;5050910;28;20205;-54
2023/02/18 06:09:12;;;;;;;10.57;8.00;;;8.50;99.90;;;-141.84;84.47;19135.09;5050519;28;20201;-51
2023/02/18 06:11:41;;;;;;;11.73;7.97;;;8.60;99.90;;;-141.84;83.94;19116.81;5050716;28;20233;-52
2023/02/18 06:14:10;;;;;;;13.73;8.83;;;8.60;99.90;;;-141.84;84.77;19086.31;5050850;28;20623;-56
2023/02/18 06:16:38;;;;;;;14.37;9.87;;;8.60;99.90;;;-141.84;85.45;19090.38;5050462;28;20237;-54
2023/02/18 06:19:07;;;;;;;13.93;9.53;;;8.60;99.90;;;-141.84;85.91;19076.16;5050661;28;20224;-53
2023/02/18 06:21:35;;;;;;;14.67;9.37;;;8.50;99.90;;;-141.84;86.24;19070.06;5050703;28;20920;-56
2023/02/18 06:24:04;;;;;;;14.63;9.80;;;8.50;99.90;;;-141.84;86.89;19084.28;5050549;28;20564;-56
2023/02/18 06:26:33;;;;;;;13.80;9.33;;;8.50;99.90;;;-141.84;87.45;19041.63;5050562;28;20232;-52
2023/02/18 06:29:01;;;;;;;13.17;9.37;;;8.40;99.90;;;-141.84;88.29;19031.47;5050571;28;20233;-55
2023/02/18 06:31:30;;;;;;;15.53;10.50;;;8.50;99.90;;;-141.84;88.80;19037.56;5050434;28;20237;-55
2023/02/18 06:33:58;;;;;;;15.97;9.67;;;8.50;99.90;;;-141.84;89.77;19000.97;5050697;28;20559;-56
2023/02/18 06:36:27;;;;;;;12.17;8.97;;;8.40;99.90;;;-141.84;90.18;19007.06;5050956;28;20197;-56
2023/02/18 06:38:56;;;;;;;15.20;9.53;;;8.40;99.90;;;-141.84;90.97;18994.88;5050487;28;20237;-53
2023/02/18 06:41:24;;;;;;;13.77;9.60;;;8.40;99.90;;;-141.84;91.38;18966.44;5050038;28;20752;-58
2023/02/18 06:43:52;;;;;;;14.10;10.03;;;8.30;99.90;;;-141.84;91.53;19005.03;5050578;28;21002;-54
2023/02/18 06:46:20;;;;;;;13.80;9.20;;;8.30;99.90;;;-141.84;91.40;18998.94;5050276;28;20258;-52
2023/02/18 06:48:50;;;;;;;14.77;10.23;;;8.40;99.90;;;-141.84;91.69;18984.72;5049751;28;20681;-49
2023/02/18 06:51:18;;;;;;;14.77;10.10;;;8.40;99.90;;;-141.84;91.83;18964.41;5050250;28;20201;-52
2023/02/18 06:53:46;;;;;;;15.73;10.27;;;8.40;99.90;;;-141.84;91.92;18964.41;5049600;28;20573;-52
2023/02/18 06:56:15;;;;;;;16.00;10.57;;;8.40;99.90;;;-141.84;92.44;18968.47;5049737;28;20244;-52
2023/02/18 06:58:43;;;;;;;15.37;10.27;;;8.40;99.90;;;-141.84;92.76;18988.78;5050263;28;20244;-54
2023/02/18 07:01:11;;;;;;;16.17;10.70;;;8.40;99.90;;;-141.84;92.92;18962.38;5049713;28;20232;-53
2023/02/18 07:03:39;;;;;;;16.33;10.20;;;8.40;99.90;;;-141.84;92.85;18940.03;5050032;28;20193;-59
2023/02/18 07:06:09;;;;;;;15.87;10.30;;;8.40;99.90;;;-141.84;93.54;18952.22;5050278;28;20207;-51
2023/02/18 07:08:37;;;;;;;15.80;10.47;;;8.30;99.90;;;-141.84;93.90;18933.94;5049871;28;20759;-59
2023/02/18 07:11:07;;;;;;;17.10;10.20;;;8.40;99.90;;;-141.84;94.24;18944.09;5050243;28;20692;-58
2023/02/18 07:13:35;;;;;;;19.10;11.80;;;8.40;99.90;;;-141.84;94.20;18925.81;5050016;28;20224;-53
2023/02/18 07:16:03;;;;;;;17.70;11.30;;;8.40;99.90;;;-141.84;94.10;18921.75;5049853;28;20221;-53
2023/02/18 07:18:32;;;;;;;18.60;11.67;;;8.40;99.90;;;-141.84;93.99;18903.44;5049939;28;20320;-54
2023/02/18 07:21:00;;;;;;;18.37;11.63;;;8.40;99.90;;;-141.84;94.45;18954.25;5042503;28;20226;-54
2023/02/18 07:23:29;;;;;;;19.23;12.10;;;8.40;99.90;;;-141.84;94.46;18931.91;5031755;28;20752;-55
2023/02/18 07:26:06;;;;;;;19.33;12.63;;;8.40;99.90;;;-141.84;94.27;18917.66;5029847;28;20328;-54
2023/02/18 07:28:35;;;;;;;18.47;12.17;;;8.50;99.90;;;-141.84;94.64;18938.00;5029919;28;20224;-53
2023/02/18 07:31:04;;;;;;;18.73;12.13;;;8.50;99.90;;;-141.84;94.44;18923.78;5029708;28;20226;-55
2023/02/18 07:33:33;;;;;;;15.53;10.70;;;8.50;99.90;;;-141.84;94.71;18935.97;5030067;28;20598;-56
2023/02/18 07:36:02;;;;;;;14.73;10.23;;;8.50;99.90;;;-141.84;94.54;18919.69;5029296;28;20233;-53
2023/02/18 07:38:32;;;;;;;14.53;9.90;;;8.50;99.90;;;-141.84;94.24;18929.88;5029614;28;20721;-53
2023/02/18 07:41:00;;;;;;;13.90;9.50;;;8.60;99.90;;;-141.84;93.00;18948.16;5029716;28;20641;-55
2023/02/18 07:43:28;;;;;;;14.20;9.67;;;8.70;99.90;;;-141.84;93.37;18956.28;5029624;28;20229;-55
2023/02/18 07:45:57;;;;;;;12.53;8.90;;;8.70;99.90;;;-141.84;93.08;18950.19;5029364;28;20206;-56
2023/02/18 07:48:27;;;;;;;14.10;9.20;;;8.70;99.90;;;-141.84;93.24;18970.50;5029813;28;20237;-54
2023/02/18 07:50:55;;;;;;;14.20;8.50;;;8.80;99.90;;;-141.84;92.74;18970.50;5042560;28;20228;-51
2023/02/18 07:53:23;;;;;;;12.83;7.57;;;8.80;99.90;;;-141.84;92.72;18974.56;5049454;28;20225;-54
2023/02/18 07:55:53;;;;;;;9.83;7.40;;;8.90;99.90;;;-141.84;92.09;18980.66;5049207;28;20348;-54
2023/02/18 07:58:24;;;;;;;11.07;7.40;;;9.00;99.90;;;-141.84;92.08;18982.69;5048661;28;20878;-54
2023/02/18 08:00:53;;;;;;;9.77;7.07;;;9.00;99.90;;;-141.84;91.89;18968.47;5048981;28;20217;-54
2023/02/18 08:03:24;;;;;;;9.43;7.23;;;9.10;99.90;;;-141.84;91.31;19025.38;5049695;28;20210;-53
2023/02/18 08:05:53;;;;;;;10.23;7.20;;;9.10;99.90;;;-141.84;90.91;19013.16;5048761;28;20233;-54
2023/02/18 08:08:26;;;;;;;10.33;6.43;;;9.10;99.90;;;-141.84;89.73;18996.91;5049025;28;20225;-55
2023/02/18 08:11:00;;;;;;;7.60;6.33;;;9.20;99.90;;;-141.84;90.04;18982.69;5049023;28;20225;-53
2023/02/18 08:13:40;;;;;;;9.30;6.93;;;9.20;99.90;;;-141.84;90.23;18984.72;5049171;28;20226;-53
2023/02/18 08:16:10;;;;;;;6.80;6.10;;;9.30;99.90;;;-141.84;88.81;19029.44;5049070;28;20565;-53
2023/02/18 08:18:38;;;;;;;7.00;5.20;;;9.40;99.90;;;-141.84;88.17;19003.00;5049309;28;20229;-54
2023/02/18 08:21:06;;;;;;;7.20;4.80;;;9.50;99.90;;;-141.84;87.74;19053.81;5049302;28;20685;-53
2023/02/18 08:23:35;;;;;;;4.97;4.40;;;9.50;99.90;;;-141.84;87.79;19029.44;5049129;28;20264;-54
2023/02/18 08:26:05;;;;;;;4.90;4.37;;;9.50;99.90;;;-141.84;87.21;19033.50;5049190;28;20757;-55
2023/02/18 08:28:33;;;;;;;5.07;4.13;;;9.50;99.90;;;-141.84;88.04;19035.53;5049216;28;20248;-57
2023/02/18 08:31:02;;;;;;;5.10;4.40;;;9.50;99.90;;;-141.84;87.51;19037.56;5048963;28;20225;-55
2023/02/18 08:33:31;;;;;;;4.47;4.00;;;9.60;99.90;;;-141.84;86.89;19057.88;5052445;28;20205;-52
2023/02/18 08:35:59;;;;;;;6.77;5.37;;;9.70;99.90;;;-141.84;86.74;19035.53;5052450;28;20768;-53
2023/02/18 08:38:27;;;;;;;4.47;3.63;;;9.70;99.90;;;-141.84;86.90;19045.69;5052451;28;20229;-53
2023/02/18 08:41:05;;;;;;;4.23;3.10;;;9.70;99.90;;;-141.84;86.82;19053.81;5052576;28;20236;-55
2023/02/18 08:43:34;;;;;;;3.20;2.67;;;9.70;99.90;;;-141.84;85.61;19106.66;5052609;28;20217;-56
2023/02/18 08:46:03;;;;;;;3.37;2.70;;;9.70;99.90;;;-141.84;85.16;19057.88;5052532;28;20225;-54
2023/02/18 08:48:33;;;;;;;2.70;2.50;;;9.80;99.90;;;-141.84;84.56;19106.66;5052599;28;20186;-56
2023/02/18 08:51:11;;;;;;;3.93;2.50;;;9.90;99.90;;;-141.84;84.28;19104.59;5052120;28;20228;-54
2023/02/18 08:53:40;;;;;;;2.40;2.17;;;9.90;99.90;;;-141.84;84.71;19112.75;5052288;28;20233;-56
2023/02/18 08:56:12;;;;;;;2.63;1.80;;;10.00;99.90;;;-141.84;84.71;19063.97;5052409;28;20252;-53
2023/02/18 08:58:40;;;;;;;2.07;1.80;;;10.00;99.90;;;-141.84;84.76;19100.53;5052300;28;20228;-54
2023/02/18 09:01:12;;;;;;;2.03;1.70;;;10.10;99.90;;;-141.84;84.55;19092.41;5052157;28;20225;-52
2023/02/18 09:03:41;;;;;;;3.47;2.30;;;10.20;99.90;;;-141.84;84.27;19122.91;5052318;28;20247;-53
2023/02/18 09:06:09;;;;;;;4.63;3.30;;;10.20;99.90;;;-141.84;83.93;19106.66;5052553;28;20205;-53
2023/02/18 09:08:37;;;;;;;3.87;1.77;;;10.20;99.90;;;-141.84;83.51;19171.66;5052115;28;20237;-54
2023/02/18 09:11:06;;;;;;;3.47;1.80;;;10.30;99.90;;;-141.84;83.52;19192.00;5052010;28;20228;-55
2023/02/18 09:13:37;;;;;;;2.90;1.40;;;10.30;99.90;;;-141.84;83.54;19163.53;5052029;28;20696;-55
2023/02/18 09:16:11;;;;;;;2.67;1.37;;;10.40;99.90;;;-141.84;84.51;19120.88;5052040;28;20243;-56
2023/02/18 09:18:39;;;;;;;1.60;1.20;;;10.30;99.90;;;-141.84;84.68;19104.59;5051701;28;20298;-59
2023/02/18 09:21:09;;;;;;;1.23;1.03;;;10.30;99.90;;;-141.84;85.52;19110.72;5052297;28;20229;-54
2023/02/18 09:23:38;;;;;;;1.20;1.10;;;10.30;99.90;;;-141.84;85.66;19094.44;5051801;28;20289;-51
2023/02/18 09:26:09;;;;;;;1.20;1.10;;;10.20;99.90;;;-141.84;85.00;19139.16;5051936;28;20226;-51
2023/02/18 09:28:38;;;;;;;1.47;1.37;;;10.30;99.90;;;-141.84;84.92;19118.84;5051889;28;20229;-52
2023/02/18 09:31:10;;;;;;;1.87;1.67;;;10.30;99.90;;;-141.84;84.47;19141.19;5051694;28;20318;-54
2023/02/18 09:33:43;;;;;;;1.20;1.10;;;10.30;99.90;;;-141.84;84.94;19159.47;5050955;28;20193;-55
2023/02/18 09:36:13;;;;;;;1.40;1.30;;;10.40;99.90;;;-141.84;85.23;19104.59;5051764;28;20182;-53
2023/02/18 09:38:41;;;;;;;1.03;0.93;;;10.40;99.90;;;-141.84;84.55;19147.28;5050838;28;20237;-56
2023/02/18 09:41:24;;;;;;;0.83;0.80;;;10.50;99.90;;;-141.84;84.21;19135.09;5050613;28;20294;-56
2023/02/18 09:43:59;;;;;;;1.87;1.03;;;10.50;99.90;;;-141.84;84.11;19139.16;5051297;28;20239;-56
2023/02/18 09:46:34;;;;;;;0.97;0.80;;;10.60;99.90;;;-141.84;84.06;19151.34;5051283;28;20216;-54
2023/02/18 09:49:07;;;;;;;1.00;0.90;;;10.60;99.90;;;-141.84;83.66;19161.50;5050990;28;20752;-55
2023/02/18 09:51:35;;;;;;;1.20;0.77;;;10.60;99.90;;;-141.84;82.39;19157.44;5051880;28;20208;-56
2023/02/18 09:54:03;;;;;;;1.03;0.93;;;10.70;99.90;;;-141.84;81.91;19165.56;5049880;28;20229;-50
2023/02/18 09:56:37;;;;;;;1.27;1.10;;;10.80;99.90;;;-141.84;81.45;19194.03;5050210;28;20237;-54
2023/02/18 09:59:18;;;;;;;1.20;1.00;;;10.80;99.90;;;-141.84;81.36;19212.31;5050224;28;20233;-54
2023/02/18 10:01:50;;;;;;;0.83;0.70;;;10.90;99.90;;;-141.84;81.43;19218.41;5050266;28;20232;-57
2023/02/18 10:04:25;;;;;;;1.03;0.80;;;11.00;99.90;;;-141.84;80.34;19234.66;5046927;28;20222;-54
2023/02/18 10:06:54;;;;;;;0.70;0.60;;;11.00;99.90;;;-141.84;79.42;19228.56;5049137;28;20274;-55
2023/02/18 10:09:29;;;;;;;0.60;0.60;;;11.10;99.90;;;-141.84;79.04;19265.13;5030025;28;20585;-54
2023/02/18 10:12:05;;;;;;;0.90;0.43;;;11.20;99.90;;;-141.84;78.68;19261.06;5029684;28;20217;-55
2023/02/18 10:14:34;;;;;;;0.63;0.50;;;11.20;99.90;;;-141.84;78.59;19289.53;5041899;28;20220;-53
2023/02/18 10:17:05;;;;;;;0.50;0.50;;;11.30;99.90;;;-141.84;77.92;19328.13;5040527;28;20651;-55
2023/02/18 10:19:39;;;;;;;1.53;0.70;;;11.40;99.90;;;-141.84;77.09;19338.28;5031405;28;20222;-55
2023/02/18 10:22:12;;;;;;;0.80;0.80;;;11.50;99.90;;;-141.84;75.64;19395.19;5049631;28;20238;-52
2023/02/18 10:24:48;;;;;;;1.67;1.57;;;11.70;99.90;;;-141.84;74.98;19393.16;5049968;28;20193;-55
2023/02/18 10:27:24;;;;;;;0.80;0.80;;;11.80;99.90;;;-141.84;74.45;19413.47;5050309;28;20193;-54
2023/02/18 10:29:56;;;;;;;0.70;0.60;;;11.90;99.90;;;-141.84;73.99;19435.84;5049605;28;20232;-56
2023/02/18 10:32:32;;;;;;;0.40;0.40;;;12.00;99.90;;;-141.84;73.50;19429.75;5049738;28;20230;-54